createdAt,value
2022-08-26T00:01:41.606Z,47.8
2022-08-26T00:07:05.438Z,46.2
2022-08-26T00:12:37.895Z,47.3
2022-08-26T00:17:56.091Z,46.4
2022-08-26T00:23:14.307Z,46.3
2022-08-26T00:28:32.792Z,47.6
2022-08-26T00:33:51.983Z,46.6
2022-08-26T00:39:10.738Z,47.7
2022-08-26T00:44:29.216Z,46.6
2022-08-26T00:49:49.652Z,47.7
2022-08-26T00:55:07.855Z,46.9
2022-08-26T01:00:26.053Z,47.4
2022-08-26T01:05:44.818Z,47.6
2022-08-26T01:11:04.944Z,47.7
2022-08-26T01:16:23.522Z,47.6
2022-08-26T01:21:42.661Z,48.1
2022-08-26T01:27:00.866Z,46.5
2022-08-26T01:32:18.793Z,46.1
2022-08-26T01:37:40.591Z,46
2022-08-26T01:42:59.103Z,46.9
2022-08-26T01:48:17.295Z,46.2
2022-08-26T01:53:35.506Z,45.5
2022-08-26T01:58:54.521Z,45.5
2022-08-26T02:04:13.085Z,45.8
2022-08-26T02:09:31.451Z,46
2022-08-26T02:14:51.385Z,44.9
2022-08-26T02:20:15.831Z,45.8
2022-08-26T02:25:34.347Z,46.1
2022-08-26T02:30:55.772Z,45.3
2022-08-26T02:36:16.153Z,45.3
2022-08-26T02:41:34.750Z,46
2022-08-26T02:47:02.108Z,44.5
2022-08-26T02:52:21.819Z,45.6
2022-08-26T02:57:40.294Z,45
2022-08-26T03:02:58.494Z,45.3
2022-08-26T03:08:17.268Z,44.5
2022-08-26T03:13:36.073Z,44.5
2022-08-26T03:18:54.498Z,44.9
2022-08-26T03:24:12.980Z,43.5
2022-08-26T03:29:33.739Z,44.5
2022-08-26T03:34:52.214Z,44.4
2022-08-26T03:40:10.666Z,43.4
2022-08-26T03:45:29.136Z,44.2
2022-08-26T03:50:51.576Z,43.7
2022-08-26T03:56:11.096Z,43.8
2022-08-26T04:01:31.431Z,43.3
2022-08-26T04:06:50.866Z,43.6
2022-08-26T04:11:53.735Z,43.1
2022-08-26T04:17:12.497Z,43.9
2022-08-26T04:22:31.250Z,43.7
2022-08-26T04:27:51.242Z,44
2022-08-26T04:33:14.279Z,43.7
2022-08-26T04:38:33.018Z,44.1
2022-08-26T04:43:53.230Z,44
2022-08-26T04:49:12.007Z,43.1
2022-08-26T04:54:17.022Z,44.5
2022-08-26T04:59:40.375Z,43.2
2022-08-26T05:04:58.594Z,44.5
2022-08-26T05:10:19.173Z,43.9
2022-08-26T05:15:38.169Z,44.2
2022-08-26T05:20:56.082Z,43.8
2022-08-26T05:26:17.146Z,43.6
2022-08-26T05:31:40.752Z,44.6
2022-08-26T05:36:59.219Z,44
2022-08-26T05:42:18.113Z,43.5
2022-08-26T05:47:36.419Z,44.5
2022-08-26T05:52:55.545Z,44.6
2022-08-26T05:58:14.308Z,43.8
2022-08-26T06:03:35.582Z,44.1
2022-08-26T06:08:54.387Z,44.2
2022-08-26T06:14:12.578Z,44.7
2022-08-26T06:19:34.793Z,45.1
2022-08-26T06:24:52.997Z,44.4
2022-08-26T06:30:12.585Z,45.3
2022-08-26T06:35:31.842Z,44.8
2022-08-26T06:40:50.898Z,45.6
2022-08-26T06:46:11.958Z,44.8
2022-08-26T06:51:30.545Z,44.9
2022-08-26T06:56:50.261Z,45.5
2022-08-26T07:02:15.054Z,45.7
2022-08-26T07:07:37.330Z,45.7
2022-08-26T07:12:57.320Z,45.8
2022-08-26T07:18:16.079Z,45.2
2022-08-26T07:23:34.826Z,46
2022-08-26T07:28:54.338Z,45.3
2022-08-26T07:34:12.820Z,46.3
2022-08-26T07:39:33.312Z,45.1
2022-08-26T07:44:53.103Z,45.4
2022-08-26T07:50:11.977Z,45.4
2022-08-26T07:55:30.759Z,46
2022-08-26T08:00:53.549Z,46
2022-08-26T08:06:11.764Z,46.1
2022-08-26T08:11:31.092Z,46.4
2022-08-26T08:16:55.398Z,45.1
2022-08-26T08:22:21.830Z,45.1
2022-08-26T08:27:40.492Z,45.9
2022-08-26T08:32:59.914Z,45.1
2022-08-26T08:38:18.110Z,46
2022-08-26T08:43:38.450Z,45.5
2022-08-26T08:48:58.050Z,45.3
2022-08-26T08:54:16.242Z,45.8
2022-08-26T08:59:34.994Z,44.6
2022-08-26T09:04:58.773Z,44.1
2022-08-26T09:10:19.414Z,45.3
2022-08-26T09:15:39.085Z,43.6
2022-08-26T09:20:57.847Z,42.8
2022-08-26T09:26:16.611Z,43
2022-08-26T09:31:35.845Z,41
2022-08-26T09:36:55.072Z,41
2022-08-26T09:42:17.347Z,39.3
2022-08-26T09:47:35.842Z,39.4
2022-08-26T09:52:54.661Z,40.9
2022-08-26T09:58:13.390Z,42
2022-08-26T10:03:32.663Z,40.4
2022-08-26T10:08:54.172Z,40.3
2022-08-26T10:14:12.682Z,39.2
2022-08-26T10:19:58.039Z,39.4
2022-08-26T10:25:16.826Z,40.1
2022-08-26T10:30:35.286Z,39.2
2022-08-26T10:35:53.765Z,39.4
2022-08-26T10:41:16.908Z,39.3
2022-08-26T10:46:41.305Z,38.8
2022-08-26T10:51:59.797Z,39.1
2022-08-26T10:57:19.636Z,38.7
2022-08-26T11:02:38.105Z,40.2
2022-08-26T11:07:57.765Z,38.3
2022-08-26T11:13:17.471Z,36
2022-08-26T11:18:38.040Z,37.9
2022-08-26T11:23:57.529Z,37.3
2022-08-26T11:29:16.159Z,36.4
2022-08-26T11:34:35.421Z,37.1
2022-08-26T11:39:57.870Z,36.2
2022-08-26T11:45:16.416Z,34.9
2022-08-26T11:50:35.526Z,36.2
2022-08-26T11:55:54.178Z,37.3
2022-08-26T12:01:12.674Z,36.6
2022-08-26T12:06:30.871Z,37.2
2022-08-26T12:11:50.419Z,36.4
2022-08-26T12:17:10.506Z,35.6
2022-08-26T12:22:29.230Z,36
2022-08-26T12:27:54.349Z,36.2
2022-08-26T12:33:23.534Z,36.6
2022-08-26T12:38:42.011Z,36.3
2022-08-26T12:44:00.224Z,36.3
2022-08-26T12:49:18.981Z,34.2
2022-08-26T12:54:37.469Z,33.4
2022-08-26T12:59:55.677Z,32.8
2022-08-26T13:05:14.726Z,34.9
2022-08-26T13:10:20.672Z,34.1
2022-08-26T13:15:38.878Z,33.3
2022-08-26T13:20:57.044Z,33.5
2022-08-26T13:26:15.548Z,34.5
2022-08-26T13:31:34.934Z,34.5
2022-08-26T13:36:53.684Z,33.8
2022-08-26T13:42:11.861Z,32.9
2022-08-26T13:47:14.730Z,34.2
2022-08-26T13:52:32.653Z,33.4
2022-08-26T13:57:51.134Z,33.6
2022-08-26T14:03:13.895Z,34.9
2022-08-26T14:08:32.089Z,33.7
2022-08-26T14:13:50.563Z,33.1
2022-08-26T14:19:08.775Z,34.1
2022-08-26T14:24:27.538Z,33.6
2022-08-26T14:29:46.030Z,33.4
2022-08-26T14:35:04.779Z,34.4
2022-08-26T14:40:22.946Z,34.5
2022-08-26T14:45:44.517Z,35.1
2022-08-26T14:51:03.285Z,34.7
2022-08-26T14:56:21.472Z,35.3
2022-08-26T15:01:40.143Z,35.3
2022-08-26T15:06:58.639Z,35.5
2022-08-26T15:12:16.832Z,35.5
2022-08-26T15:17:35.585Z,34.6
2022-08-26T15:22:55.013Z,35.5
2022-08-26T15:28:13.532Z,34.9
2022-08-26T15:33:16.678Z,34.7
2022-08-26T15:38:34.872Z,34.4
2022-08-26T15:43:53.356Z,33.6
2022-08-26T15:49:19.277Z,33
2022-08-26T15:54:37.756Z,34.8
2022-08-26T15:59:56.241Z,35.1
2022-08-26T16:05:14.730Z,35.8
2022-08-26T16:10:32.655Z,35.5
2022-08-26T16:15:50.985Z,34
2022-08-26T16:21:14.478Z,33.5
2022-08-26T16:26:32.887Z,33.2
2022-08-26T16:31:51.625Z,32.9
2022-08-26T16:37:10.402Z,34.1
2022-08-26T16:42:28.844Z,33.2
2022-08-26T16:47:47.569Z,33.3
2022-08-26T16:53:05.666Z,33.9
2022-08-26T16:58:23.808Z,35.2
2022-08-26T17:03:42.538Z,35.5
2022-08-26T17:09:01.277Z,37.4
2022-08-26T17:14:20.022Z,37.8
2022-08-26T17:19:47.402Z,37.5
2022-08-26T17:25:06.132Z,38.4
2022-08-26T17:30:24.297Z,39.2
2022-08-26T17:35:42.769Z,38.4
2022-08-26T17:41:01.258Z,38
2022-08-26T17:46:19.581Z,39
2022-08-26T17:51:43.608Z,41
2022-08-26T17:57:02.077Z,38.9
2022-08-26T18:02:20.673Z,37.6
2022-08-26T18:07:23.508Z,37.7
2022-08-26T18:12:41.973Z,37.8
2022-08-26T18:18:00.451Z,37.1
2022-08-26T18:23:18.658Z,36.9
2022-08-26T18:28:37.134Z,37.5
2022-08-26T18:33:55.018Z,38.5
2022-08-26T18:39:13.455Z,38.7
2022-08-26T18:44:32.021Z,38.8
2022-08-26T18:49:50.468Z,39.5
2022-08-26T18:55:09.216Z,40.1
2022-08-26T19:00:27.419Z,40.8
2022-08-26T19:05:45.860Z,41.3
2022-08-26T19:11:06.776Z,41.4
2022-08-26T19:16:25.684Z,40.9
2022-08-26T19:21:43.841Z,41
2022-08-26T19:27:02.072Z,41.5
2022-08-26T19:32:20.829Z,41.5
2022-08-26T19:37:39.794Z,41.1
2022-08-26T19:42:58.190Z,40.1
2022-08-26T19:48:16.959Z,39.6
2022-08-26T19:53:35.868Z,39.6
2022-08-26T19:58:54.055Z,40.1
2022-08-26T20:04:12.817Z,42.5
2022-08-26T20:09:31.578Z,41.5
2022-08-26T20:14:50.058Z,41.8
2022-08-26T20:20:34.025Z,41.8
2022-08-26T20:25:52.753Z,42.4
2022-08-26T20:31:13.628Z,41.4
2022-08-26T20:36:32.116Z,41.6
2022-08-26T20:41:50.593Z,40.9
2022-08-26T20:47:08.801Z,40.9
2022-08-26T20:52:27.554Z,41
2022-08-26T20:57:46.032Z,41.5
2022-08-26T21:03:04.503Z,41.7
2022-08-26T21:08:23.031Z,41.6
2022-08-26T21:14:17.343Z,41.4
2022-08-26T21:19:35.909Z,41.6
2022-08-26T21:24:55.256Z,41.4
2022-08-26T21:30:13.745Z,42.1
2022-08-26T21:35:31.649Z,41.3
2022-08-26T21:40:49.609Z,41
2022-08-26T21:45:52.404Z,40.8
2022-08-26T21:51:10.619Z,41.6
2022-08-26T21:56:29.388Z,41.4
2022-08-26T22:01:47.921Z,40.8
2022-08-26T22:07:06.422Z,41.5
2022-08-26T22:12:24.918Z,42.1
2022-08-26T22:17:43.390Z,42.3
2022-08-26T22:23:01.866Z,41.3
2022-08-26T22:28:20.355Z,41.8
